sensor_id;sensor_type;location;lat;lon;timestamp;pressure;altitude;pressure_sealevel;temperature;humidity
75036;BME280;64247;51.540;5.854;2023-04-26T00:00:33;101613.72;;;-0.09;100.00
75036;BME280;64247;51.540;5.854;2023-04-26T00:02:34;101612.84;;;-0.15;100.00
75036;BME280;64247;51.540;5.854;2023-04-26T00:04:35;101613.59;;;-0.20;100.00
75036;BME280;64247;51.540;5.854;2023-04-26T00:06:36;101607.16;;;-0.24;100.00
75036;BME280;64247;51.540;5.854;2023-04-26T00:08:37;101617.56;;;-0.22;100.00
75036;BME280;64247;51.540;5.854;2023-04-26T00:10:38;101606.59;;;-0.26;100.00
75036;BME280;64247;51.540;5.854;2023-04-26T00:12:40;101603.91;;;-0.26;100.00
75036;BME280;64247;51.540;5.854;2023-04-26T00:14:40;101612.19;;;-0.27;100.00
75036;BME280;64247;51.540;5.854;2023-04-26T00:16:41;101607.28;;;-0.36;100.00
75036;BME280;64247;51.540;5.854;2023-04-26T00:18:42;101616.00;;;-0.40;100.00
75036;BME280;64247;51.540;5.854;2023-04-26T00:20:45;101609.06;;;-0.41;100.00
75036;BME280;64247;51.540;5.854;2023-04-26T00:22:46;101605.03;;;-0.44;100.00
75036;BME280;64247;51.540;5.854;2023-04-26T00:24:47;101613.03;;;-0.44;100.00
75036;BME280;64247;51.540;5.854;2023-04-26T00:26:48;101605.25;;;-0.45;100.00
75036;BME280;64247;51.540;5.854;2023-04-26T00:28:49;101602.28;;;-0.49;100.00
75036;BME280;64247;51.540;5.854;2023-04-26T00:30:50;101609.75;;;-0.51;100.00
75036;BME280;64247;51.540;5.854;2023-04-26T00:32:50;101605.72;;;-0.54;100.00
75036;BME280;64247;51.540;5.854;2023-04-26T00:34:51;101608.88;;;-0.57;100.00
75036;BME280;64247;51.540;5.854;2023-04-26T00:36:52;101610.97;;;-0.59;100.00
75036;BME280;64247;51.540;5.854;2023-04-26T00:38:53;101602.16;;;-0.59;100.00
75036;BME280;64247;51.540;5.854;2023-04-26T00:40:54;101604.53;;;-0.63;100.00
75036;BME280;64247;51.540;5.854;2023-04-26T00:42:58;101599.34;;;-0.70;100.00
75036;BME280;64247;51.540;5.854;2023-04-26T00:44:59;101596.38;;;-0.73;100.00
75036;BME280;64247;51.540;5.854;2023-04-26T00:47:00;101602.75;;;-0.74;100.00
75036;BME280;64247;51.540;5.854;2023-04-26T00:49:01;101599.50;;;-0.76;100.00
75036;BME280;64247;51.540;5.854;2023-04-26T00:51:04;101605.09;;;-0.78;100.00
75036;BME280;64247;51.540;5.854;2023-04-26T00:53:07;101598.16;;;-0.79;100.00
75036;BME280;64247;51.540;5.854;2023-04-26T00:55:09;101604.78;;;-0.82;100.00
75036;BME280;64247;51.540;5.854;2023-04-26T00:57:11;101596.22;;;-0.84;100.00
75036;BME280;64247;51.540;5.854;2023-04-26T00:59:12;101607.97;;;-0.85;100.00
75036;BME280;64247;51.540;5.854;2023-04-26T01:01:13;101601.81;;;-0.85;100.00
75036;BME280;64247;51.540;5.854;2023-04-26T01:03:14;101601.81;;;-0.85;100.00
75036;BME280;64247;51.540;5.854;2023-04-26T01:05:16;101603.41;;;-0.84;100.00
75036;BME280;64247;51.540;5.854;2023-04-26T01:07:18;101600.50;;;-0.83;100.00
75036;BME280;64247;51.540;5.854;2023-04-26T01:09:19;101601.06;;;-0.81;100.00
75036;BME280;64247;51.540;5.854;2023-04-26T01:11:20;101602.94;;;-0.81;100.00
75036;BME280;64247;51.540;5.854;2023-04-26T01:13:23;101602.38;;;-0.83;100.00
75036;BME280;64247;51.540;5.854;2023-04-26T01:15:25;101609.31;;;-0.82;100.00
75036;BME280;64247;51.540;5.854;2023-04-26T01:17:27;101613.59;;;-0.81;100.00
75036;BME280;64247;51.540;5.854;2023-04-26T01:19:30;101612.38;;;-0.73;100.00
75036;BME280;64247;51.540;5.854;2023-04-26T01:21:31;101605.25;;;-0.68;100.00
75036;BME280;64247;51.540;5.854;2023-04-26T01:23:32;101604.53;;;-0.63;100.00
75036;BME280;64247;51.540;5.854;2023-04-26T01:25:34;101604.22;;;-0.67;100.00
75036;BME280;64247;51.540;5.854;2023-04-26T01:27:35;101605.50;;;-0.69;100.00
75036;BME280;64247;51.540;5.854;2023-04-26T01:29:36;101602.53;;;-0.73;100.00
75036;BME280;64247;51.540;5.854;2023-04-26T01:31:38;101605.41;;;-0.74;100.00
75036;BME280;64247;51.540;5.854;2023-04-26T01:33:38;101606.72;;;-0.77;100.00
75036;BME280;64247;51.540;5.854;2023-04-26T01:35:39;101610.44;;;-0.78;100.00
75036;BME280;64247;51.540;5.854;2023-04-26T01:37:40;101608.81;;;-0.79;100.00
75036;BME280;64247;51.540;5.854;2023-04-26T01:39:41;101610.13;;;-0.82;100.00
75036;BME280;64247;51.540;5.854;2023-04-26T01:41:42;101614.56;;;-0.87;100.00
75036;BME280;64247;51.540;5.854;2023-04-26T01:43:43;101615.06;;;-0.90;100.00
75036;BME280;64247;51.540;5.854;2023-04-26T01:45:47;101606.50;;;-0.92;100.00
75036;BME280;64247;51.540;5.854;2023-04-26T01:48:06;101617.88;;;-0.97;100.00
75036;BME280;64247;51.540;5.854;2023-04-26T01:50:08;101612.56;;;-0.97;100.00
75036;BME280;64247;51.540;5.854;2023-04-26T01:52:09;101614.19;;;-0.96;100.00
75036;BME280;64247;51.540;5.854;2023-04-26T01:54:10;101608.13;;;-0.91;100.00
75036;BME280;64247;51.540;5.854;2023-04-26T01:56:12;101606.25;;;-0.91;100.00
75036;BME280;64247;51.540;5.854;2023-04-26T01:58:13;101615.06;;;-0.90;100.00
75036;BME280;64247;51.540;5.854;2023-04-26T02:00:14;101609.47;;;-0.89;100.00
75036;BME280;64247;51.540;5.854;2023-04-26T02:02:16;101610.22;;;-0.93;100.00
75036;BME280;64247;51.540;5.854;2023-04-26T02:04:18;101605.63;;;-0.98;100.00
75036;BME280;64247;51.540;5.854;2023-04-26T02:06:19;101607.16;;;-1.02;100.00
75036;BME280;64247;51.540;5.854;2023-04-26T02:08:21;101601.50;;;-1.06;100.00
75036;BME280;64247;51.540;5.854;2023-04-26T02:10:21;101605.69;;;-1.10;100.00
75036;BME280;64247;51.540;5.854;2023-04-26T02:12:22;101602.97;;;-1.15;100.00
75036;BME280;64247;51.540;5.854;2023-04-26T02:14:23;101602.16;;;-1.16;100.00
75036;BME280;64247;51.540;5.854;2023-04-26T02:16:24;101601.34;;;-1.16;100.00
75036;BME280;64247;51.540;5.854;2023-04-26T02:18:26;101602.38;;;-1.17;100.00
75036;BME280;64247;51.540;5.854;2023-04-26T02:20:29;101610.06;;;-1.21;100.00
75036;BME280;64247;51.540;5.854;2023-04-26T02:22:30;101614.28;;;-1.25;100.00
75036;BME280;64247;51.540;5.854;2023-04-26T02:24:30;101612.09;;;-1.28;100.00
75036;BME280;64247;51.540;5.854;2023-04-26T02:26:31;101609.41;;;-1.28;100.00
75036;BME280;64247;51.540;5.854;2023-04-26T02:28:34;101611.50;;;-1.30;100.00
75036;BME280;64247;51.540;5.854;2023-04-26T02:30:35;101612.81;;;-1.33;100.00
75036;BME280;64247;51.540;5.854;2023-04-26T02:32:36;101614.34;;;-1.37;100.00
75036;BME280;64247;51.540;5.854;2023-04-26T02:34:37;101609.59;;;-1.35;100.00
75036;BME280;64247;51.540;5.854;2023-04-26T02:36:38;101609.34;;;-1.33;100.00
75036;BME280;64247;51.540;5.854;2023-04-26T02:38:39;101612.47;;;-1.36;100.00
75036;BME280;64247;51.540;5.854;2023-04-26T02:40:42;101605.53;;;-1.37;100.00
75036;BME280;64247;51.540;5.854;2023-04-26T02:42:46;101609.81;;;-1.36;100.00
75036;BME280;64247;51.540;5.854;2023-04-26T02:44:47;101604.50;;;-1.36;100.00
75036;BME280;64247;51.540;5.854;2023-04-26T02:46:48;101596.75;;;-1.38;100.00
75036;BME280;64247;51.540;5.854;2023-04-26T02:48:50;101596.16;;;-1.40;100.00
75036;BME280;64247;51.540;5.854;2023-04-26T02:50:51;101592.47;;;-1.39;100.00
75036;BME280;64247;51.540;5.854;2023-04-26T02:52:52;101600.72;;;-1.40;100.00
75036;BME280;64247;51.540;5.854;2023-04-26T02:54:53;101598.28;;;-1.42;100.00
75036;BME280;64247;51.540;5.854;2023-04-26T02:56:54;101599.09;;;-1.41;100.00
75036;BME280;64247;51.540;5.854;2023-04-26T02:58:55;101596.44;;;-1.41;100.00
75036;BME280;64247;51.540;5.854;2023-04-26T03:00:57;101598.38;;;-1.37;100.00
75036;BME280;64247;51.540;5.854;2023-04-26T03:02:58;101593.63;;;-1.35;100.00
75036;BME280;64247;51.540;5.854;2023-04-26T03:04:59;101591.75;;;-1.34;100.00
75036;BME280;64247;51.540;5.854;2023-04-26T03:07:03;101590.38;;;-1.37;100.00
75036;BME280;64247;51.540;5.854;2023-04-26T03:09:05;101595.13;;;-1.39;100.00
75036;BME280;64247;51.540;5.854;2023-04-26T03:11:05;101590.31;;;-1.42;100.00
75036;BME280;64247;51.540;5.854;2023-04-26T03:13:08;101589.00;;;-1.39;100.00
75036;BME280;64247;51.540;5.854;2023-04-26T03:15:09;101589.22;;;-1.41;100.00
75036;BME280;64247;51.540;5.854;2023-04-26T03:17:10;101588.91;;;-1.45;100.00
75036;BME280;64247;51.540;5.854;2023-04-26T03:19:11;101580.84;;;-1.50;100.00
75036;BME280;64247;51.540;5.854;2023-04-26T03:21:13;101587.72;;;-1.54;100.00
75036;BME280;64247;51.540;5.854;2023-04-26T03:23:14;101588.50;;;-1.53;100.00
75036;BME280;64247;51.540;5.854;2023-04-26T03:25:15;101588.25;;;-1.52;100.00
75036;BME280;64247;51.540;5.854;2023-04-26T03:27:16;101586.88;;;-1.54;100.00
75036;BME280;64247;51.540;5.854;2023-04-26T03:29:18;101589.88;;;-1.51;100.00
75036;BME280;64247;51.540;5.854;2023-04-26T03:31:18;101583.19;;;-1.53;100.00
75036;BME280;64247;51.540;5.854;2023-04-26T03:33:21;101583.44;;;-1.55;100.00
75036;BME280;64247;51.540;5.854;2023-04-26T03:35:22;101573.25;;;-1.58;100.00
75036;BME280;64247;51.540;5.854;2023-04-26T03:37:23;101571.41;;;-1.57;100.00
75036;BME280;64247;51.540;5.854;2023-04-26T03:39:31;101574.06;;;-1.57;100.00
75036;BME280;64247;51.540;5.854;2023-04-26T03:41:32;101573.50;;;-1.60;100.00
75036;BME280;64247;51.540;5.854;2023-04-26T03:43:37;101577.44;;;-1.62;100.00
75036;BME280;64247;51.540;5.854;2023-04-26T03:45:38;101580.34;;;-1.64;100.00
75036;BME280;64247;51.540;5.854;2023-04-26T03:47:39;101580.34;;;-1.64;100.00
75036;BME280;64247;51.540;5.854;2023-04-26T03:49:40;101578.50;;;-1.63;100.00
75036;BME280;64247;51.540;5.854;2023-04-26T03:51:41;101573.50;;;-1.60;100.00
75036;BME280;64247;51.540;5.854;2023-04-26T03:53:42;101576.16;;;-1.60;100.00
75036;BME280;64247;51.540;5.854;2023-04-26T03:55:43;101576.94;;;-1.59;100.00
75036;BME280;64247;51.540;5.854;2023-04-26T03:57:44;101565.97;;;-1.63;100.00
75036;BME280;64247;51.540;5.854;2023-04-26T03:59:45;101567.13;;;-1.58;100.00
75036;BME280;64247;51.540;5.854;2023-04-26T04:01:46;101574.06;;;-1.57;100.00
75036;BME280;64247;51.540;5.854;2023-04-26T04:03:46;101569.22;;;-1.61;100.00
75036;BME280;64247;51.540;5.854;2023-04-26T04:05:48;101569.69;;;-1.64;100.00
75036;BME280;64247;51.540;5.854;2023-04-26T04:07:49;101575.25;;;-1.65;100.00
75036;BME280;64247;51.540;5.854;2023-04-26T04:09:50;101583.31;;;-1.60;100.00
75036;BME280;64247;51.540;5.854;2023-04-26T04:11:53;101583.91;;;-1.58;100.00
75036;BME280;64247;51.540;5.854;2023-04-26T04:13:54;101579.16;;;-1.56;100.00
75036;BME280;64247;51.540;5.854;2023-04-26T04:15:55;101577.06;;;-1.54;100.00
75036;BME280;64247;51.540;5.854;2023-04-26T04:17:57;101583.44;;;-1.55;100.00
75036;BME280;64247;51.540;5.854;2023-04-26T04:19:58;101576.47;;;-1.56;100.00
75036;BME280;64247;51.540;5.854;2023-04-26T04:21:58;101581.56;;;-1.54;100.00
75036;BME280;64247;51.540;5.854;2023-04-26T04:24:00;101585.03;;;-1.54;100.00
75036;BME280;64247;51.540;5.854;2023-04-26T04:26:01;101578.66;;;-1.53;100.00
75036;BME280;64247;51.540;5.854;2023-04-26T04:28:02;101583.50;;;-1.50;100.00
75036;BME280;64247;51.540;5.854;2023-04-26T04:30:04;101579.53;;;-1.47;100.00
75036;BME280;64247;51.540;5.854;2023-04-26T04:32:08;101577.78;;;-1.41;100.00
75036;BME280;64247;51.540;5.854;2023-04-26T04:34:10;101587.72;;;-1.37;100.00
75036;BME280;64247;51.540;5.854;2023-04-26T04:36:14;101590.44;;;-1.32;100.00
75036;BME280;64247;51.540;5.854;2023-04-26T04:38:17;101594.72;;;-1.31;100.00
75036;BME280;64247;51.540;5.854;2023-04-26T04:40:17;101593.44;;;-1.28;100.00
75036;BME280;64247;51.540;5.854;2023-04-26T04:42:20;101599.09;;;-1.24;100.00
75036;BME280;64247;51.540;5.854;2023-04-26T04:44:21;101587.13;;;-1.22;100.00
75036;BME280;64247;51.540;5.854;2023-04-26T04:46:25;101590.13;;;-1.18;100.00
75036;BME280;64247;51.540;5.854;2023-04-26T04:48:26;101587.78;;;-1.15;100.00
75036;BME280;64247;51.540;5.854;2023-04-26T04:50:28;101594.00;;;-1.09;100.00
75036;BME280;64247;51.540;5.854;2023-04-26T04:52:31;101597.06;;;-1.00;100.00
75036;BME280;64247;51.540;5.854;2023-04-26T04:54:32;101603.50;;;-0.96;100.00
75036;BME280;64247;51.540;5.854;2023-04-26T04:56:34;101606.03;;;-0.89;100.00
75036;BME280;64247;51.540;5.854;2023-04-26T04:58:35;101606.09;;;-0.84;100.00
75036;BME280;64247;51.540;5.854;2023-04-26T05:00:37;101603.25;;;-0.77;100.00
75036;BME280;64247;51.540;5.854;2023-04-26T05:02:53;101606.78;;;-0.72;100.00
75036;BME280;64247;51.540;5.854;2023-04-26T05:04:53;101613.50;;;-0.69;100.00
75036;BME280;64247;51.540;5.854;2023-04-26T05:06:55;101605.56;;;-0.64;100.00
75036;BME280;64247;51.540;5.854;2023-04-26T05:08:58;101606.19;;;-0.57;100.00
75036;BME280;64247;51.540;5.854;2023-04-26T05:10:59;101609.22;;;-0.48;100.00
75036;BME280;64247;51.540;5.854;2023-04-26T05:13:00;101608.56;;;-0.38;100.00
75036;BME280;64247;51.540;5.854;2023-04-26T05:15:01;101602.78;;;-0.30;100.00
75036;BME280;64247;51.540;5.854;2023-04-26T05:17:04;101616.81;;;-0.18;100.00
75036;BME280;64247;51.540;5.854;2023-04-26T05:19:05;101616.69;;;-0.06;100.00
75036;BME280;64247;51.540;5.854;2023-04-26T05:21:06;101622.13;;;0.05;100.00
75036;BME280;64247;51.540;5.854;2023-04-26T05:23:07;101619.88;;;0.19;100.00
75036;BME280;64247;51.540;5.854;2023-04-26T05:25:09;101616.31;;;0.35;100.00
75036;BME280;64247;51.540;5.854;2023-04-26T05:27:10;101626.09;;;0.52;100.00
75036;BME280;64247;51.540;5.854;2023-04-26T05:29:30;101624.63;;;0.71;100.00
75036;BME280;64247;51.540;5.854;2023-04-26T05:31:37;101629.59;;;0.90;100.00
75036;BME280;64247;51.540;5.854;2023-04-26T05:33:45;101619.06;;;1.10;100.00
75036;BME280;64247;51.540;5.854;2023-04-26T05:36:06;101626.72;;;1.39;100.00
75036;BME280;64247;51.540;5.854;2023-04-26T05:38:08;101629.78;;;1.64;100.00
75036;BME280;64247;51.540;5.854;2023-04-26T05:40:09;101625.31;;;1.85;100.00
75036;BME280;64247;51.540;5.854;2023-04-26T05:42:11;101629.13;;;2.04;100.00
75036;BME280;64247;51.540;5.854;2023-04-26T05:44:13;101632.66;;;2.20;100.00
75036;BME280;64247;51.540;5.854;2023-04-26T05:46:14;101624.91;;;2.34;100.00
75036;BME280;64247;51.540;5.854;2023-04-26T05:48:15;101622.78;;;2.47;100.00
75036;BME280;64247;51.540;5.854;2023-04-26T05:50:16;101627.09;;;2.58;100.00
75036;BME280;64247;51.540;5.854;2023-04-26T05:52:17;101628.44;;;2.71;100.00
75036;BME280;64247;51.540;5.854;2023-04-26T05:54:18;101624.13;;;2.80;100.00
75036;BME280;64247;51.540;5.854;2023-04-26T05:56:19;101632.97;;;2.91;100.00
75036;BME280;64247;51.540;5.854;2023-04-26T05:58:20;101630.56;;;3.00;100.00
75036;BME280;64247;51.540;5.854;2023-04-26T06:00:21;101638.09;;;3.08;100.00
75036;BME280;64247;51.540;5.854;2023-04-26T06:02:22;101637.53;;;3.11;100.00
75036;BME280;64247;51.540;5.854;2023-04-26T06:04:25;101632.44;;;3.20;100.00
75036;BME280;64247;51.540;5.854;2023-04-26T06:06:52;101638.56;;;3.26;100.00
75036;BME280;64247;51.540;5.854;2023-04-26T06:08:55;101638.56;;;3.31;100.00
75036;BME280;64247;51.540;5.854;2023-04-26T06:10:56;101641.78;;;3.38;100.00
75036;BME280;64247;51.540;5.854;2023-04-26T06:12:57;101638.78;;;3.45;100.00
75036;BME280;64247;51.540;5.854;2023-04-26T06:15:00;101646.28;;;3.53;100.00
75036;BME280;64247;51.540;5.854;2023-04-26T06:17:02;101647.34;;;3.62;100.00
75036;BME280;64247;51.540;5.854;2023-04-26T06:19:03;101653.19;;;3.80;100.00
75036;BME280;64247;51.540;5.854;2023-04-26T06:21:04;101643.19;;;3.96;100.00
75036;BME280;64247;51.540;5.854;2023-04-26T06:23:05;101646.31;;;4.14;100.00
75036;BME280;64247;51.540;5.854;2023-04-26T06:25:07;101644.88;;;4.32;100.00
75036;BME280;64247;51.540;5.854;2023-04-26T06:27:10;101640.13;;;4.58;100.00
75036;BME280;64247;51.540;5.854;2023-04-26T06:29:12;101639.47;;;4.77;100.00
75036;BME280;64247;51.540;5.854;2023-04-26T06:31:13;101637.63;;;5.01;100.00
75036;BME280;64247;51.540;5.854;2023-04-26T06:33:14;101633.44;;;5.19;100.00
75036;BME280;64247;51.540;5.854;2023-04-26T06:35:15;101639.16;;;5.37;100.00
75036;BME280;64247;51.540;5.854;2023-04-26T06:37:17;101624.03;;;5.65;98.35
75036;BME280;64247;51.540;5.854;2023-04-26T06:39:17;101641.06;;;5.85;97.34
75036;BME280;64247;51.540;5.854;2023-04-26T06:41:19;101640.28;;;6.04;96.44
75036;BME280;64247;51.540;5.854;2023-04-26T06:43:22;101642.25;;;6.17;95.59
75036;BME280;64247;51.540;5.854;2023-04-26T06:45:49;101648.34;;;6.28;93.12
75036;BME280;64247;51.540;5.854;2023-04-26T06:47:53;101648.25;;;6.33;92.25
75036;BME280;64247;51.540;5.854;2023-04-26T06:49:57;101655.47;;;6.38;92.61
75036;BME280;64247;51.540;5.854;2023-04-26T06:51:58;101648.13;;;6.43;94.02
75036;BME280;64247;51.540;5.854;2023-04-26T06:53:59;101661.66;;;6.57;92.42
75036;BME280;64247;51.540;5.854;2023-04-26T06:56:00;101657.19;;;6.67;90.00
75036;BME280;64247;51.540;5.854;2023-04-26T06:58:02;101655.72;;;6.74;89.20
75036;BME280;64247;51.540;5.854;2023-04-26T07:00:03;101666.13;;;6.81;90.13
75036;BME280;64247;51.540;5.854;2023-04-26T07:02:05;101666.19;;;6.95;89.84
75036;BME280;64247;51.540;5.854;2023-04-26T07:04:06;101661.53;;;7.15;89.33
75036;BME280;64247;51.540;5.854;2023-04-26T07:06:09;101672.97;;;7.39;86.76
75036;BME280;64247;51.540;5.854;2023-04-26T07:08:10;101664.38;;;7.51;86.18
75036;BME280;64247;51.540;5.854;2023-04-26T07:10:12;101671.47;;;7.61;84.78
75036;BME280;64247;51.540;5.854;2023-04-26T07:12:13;101667.50;;;7.72;82.07
75036;BME280;64247;51.540;5.854;2023-04-26T07:14:14;101661.28;;;7.72;82.45
75036;BME280;64247;51.540;5.854;2023-04-26T07:16:15;101674.09;;;7.80;82.90
75036;BME280;64247;51.540;5.854;2023-04-26T07:18:16;101669.38;;;7.86;79.75
75036;BME280;64247;51.540;5.854;2023-04-26T07:20:17;101673.06;;;7.90;80.09
75036;BME280;64247;51.540;5.854;2023-04-26T07:22:22;101659.47;;;7.95;79.98
75036;BME280;64247;51.540;5.854;2023-04-26T07:24:23;101658.56;;;8.00;79.40
75036;BME280;64247;51.540;5.854;2023-04-26T07:26:25;101664.34;;;8.07;78.50
75036;BME280;64247;51.540;5.854;2023-04-26T07:28:26;101664.53;;;8.11;77.17
75036;BME280;64247;51.540;5.854;2023-04-26T07:30:27;101658.03;;;8.12;77.01
75036;BME280;64247;51.540;5.854;2023-04-26T07:32:28;101660.13;;;8.15;76.54
75036;BME280;64247;51.540;5.854;2023-04-26T07:34:29;101657.50;;;8.23;75.46
75036;BME280;64247;51.540;5.854;2023-04-26T07:36:30;101654.50;;;8.25;74.74
75036;BME280;64247;51.540;5.854;2023-04-26T07:38:31;101660.69;;;8.26;73.38
75036;BME280;64247;51.540;5.854;2023-04-26T07:40:32;101652.28;;;8.27;73.55
75036;BME280;64247;51.540;5.854;2023-04-26T07:42:32;101654.56;;;8.34;72.72
75036;BME280;64247;51.540;5.854;2023-04-26T07:44:33;101654.47;;;8.39;73.56
75036;BME280;64247;51.540;5.854;2023-04-26T07:46:34;101659.84;;;8.53;73.37
75036;BME280;64247;51.540;5.854;2023-04-26T07:48:35;101660.94;;;8.75;73.37
75036;BME280;64247;51.540;5.854;2023-04-26T07:50:36;101664.94;;;9.00;70.10
75036;BME280;64247;51.540;5.854;2023-04-26T07:52:37;101659.31;;;9.19;69.57
75036;BME280;64247;51.540;5.854;2023-04-26T07:54:38;101653.59;;;9.21;68.95
75036;BME280;64247;51.540;5.854;2023-04-26T07:56:39;101658.31;;;9.15;69.04
75036;BME280;64247;51.540;5.854;2023-04-26T07:58:40;101651.38;;;9.23;68.88
75036;BME280;64247;51.540;5.854;2023-04-26T08:00:41;101666.75;;;9.45;68.20
75036;BME280;64247;51.540;5.854;2023-04-26T08:02:42;101658.25;;;9.69;64.67
75036;BME280;64247;51.540;5.854;2023-04-26T08:04:52;101662.53;;;9.70;64.97
75036;BME280;64247;51.540;5.854;2023-04-26T08:06:54;101661.13;;;9.73;63.44
75036;BME280;64247;51.540;5.854;2023-04-26T08:08:56;101668.63;;;9.76;63.82
75036;BME280;64247;51.540;5.854;2023-04-26T08:10:57;101667.34;;;9.82;63.60
75036;BME280;64247;51.540;5.854;2023-04-26T08:12:57;101661.16;;;9.90;63.19
75036;BME280;64247;51.540;5.854;2023-04-26T08:15:03;101666.75;;;9.94;61.39
75036;BME280;64247;51.540;5.854;2023-04-26T08:17:06;101664.00;;;9.85;62.64
75036;BME280;64247;51.540;5.854;2023-04-26T08:19:11;101666.75;;;9.94;62.37
75036;BME280;64247;51.540;5.854;2023-04-26T08:21:12;101670.94;;;10.09;63.49
75036;BME280;64247;51.540;5.854;2023-04-26T08:23:13;101668.38;;;10.21;60.72
75036;BME280;64247;51.540;5.854;2023-04-26T08:25:14;101660.44;;;10.42;59.45
75036;BME280;64247;51.540;5.854;2023-04-26T08:27:18;101663.47;;;10.50;58.69
75036;BME280;64247;51.540;5.854;2023-04-26T08:29:19;101668.28;;;10.53;60.63
75036;BME280;64247;51.540;5.854;2023-04-26T08:31:20;101689.03;;;10.40;58.25
75036;BME280;64247;51.540;5.854;2023-04-26T08:33:22;101678.28;;;10.17;58.53
75036;BME280;64247;51.540;5.854;2023-04-26T08:35:23;101679.69;;;9.97;60.04
75036;BME280;64247;51.540;5.854;2023-04-26T08:37:23;101678.56;;;9.98;59.93
75036;BME280;64247;51.540;5.854;2023-04-26T08:39:24;101676.81;;;10.02;59.84
75036;BME280;64247;51.540;5.854;2023-04-26T08:41:26;101680.00;;;9.95;60.33
75036;BME280;64247;51.540;5.854;2023-04-26T08:43:28;101669.59;;;9.89;61.32
75036;BME280;64247;51.540;5.854;2023-04-26T08:45:30;101671.81;;;9.78;60.20
75036;BME280;64247;51.540;5.854;2023-04-26T08:47:49;101671.25;;;9.58;60.04
75036;BME280;64247;51.540;5.854;2023-04-26T08:49:53;101666.25;;;9.43;61.64
75036;BME280;64247;51.540;5.854;2023-04-26T08:52:12;101670.91;;;9.51;60.77
75036;BME280;64247;51.540;5.854;2023-04-26T08:54:18;101666.31;;;9.52;59.54
75036;BME280;64247;51.540;5.854;2023-04-26T08:56:22;101671.56;;;9.57;59.30
75036;BME280;64247;51.540;5.854;2023-04-26T08:58:24;101668.75;;;9.71;58.75
75036;BME280;64247;51.540;5.854;2023-04-26T09:00:26;101674.25;;;9.88;58.94
75036;BME280;64247;51.540;5.854;2023-04-26T09:02:28;101666.16;;;10.14;57.12
75036;BME280;64247;51.540;5.854;2023-04-26T09:04:29;101669.81;;;10.19;56.16
75036;BME280;64247;51.540;5.854;2023-04-26T09:06:34;101663.59;;;10.18;56.71
75036;BME280;64247;51.540;5.854;2023-04-26T09:08:39;101658.31;;;10.13;57.13
75036;BME280;64247;51.540;5.854;2023-04-26T09:10:42;101657.84;;;10.11;58.51
75036;BME280;64247;51.540;5.854;2023-04-26T09:12:43;101658.94;;;10.01;58.80
75036;BME280;64247;51.540;5.854;2023-04-26T09:14:44;101661.16;;;9.90;58.38
75036;BME280;64247;51.540;5.854;2023-04-26T09:16:46;101660.16;;;9.77;58.43
75036;BME280;64247;51.540;5.854;2023-04-26T09:18:50;101651.84;;;9.74;57.78
75036;BME280;64247;51.540;5.854;2023-04-26T09:21:03;101660.97;;;9.69;56.99
75036;BME280;64247;51.540;5.854;2023-04-26T09:23:25;101659.81;;;9.70;56.63
75036;BME280;64247;51.540;5.854;2023-04-26T09:25:29;101655.22;;;9.79;57.69
75036;BME280;64247;51.540;5.854;2023-04-26T09:27:33;101651.13;;;9.91;56.74
75036;BME280;64247;51.540;5.854;2023-04-26T09:30:02;101657.69;;;10.07;55.40
75036;BME280;64247;51.540;5.854;2023-04-26T09:32:11;101656.56;;;10.17;55.58
75036;BME280;64247;51.540;5.854;2023-04-26T09:34:14;101654.47;;;10.14;53.91
75036;BME280;64247;51.540;5.854;2023-04-26T09:36:15;101648.91;;;10.19;54.54
75036;BME280;64247;51.540;5.854;2023-04-26T09:38:17;101642.50;;;10.24;55.54
75036;BME280;64247;51.540;5.854;2023-04-26T09:40:20;101645.53;;;10.31;54.24
75036;BME280;64247;51.540;5.854;2023-04-26T09:42:21;101646.22;;;10.37;54.40
75036;BME280;64247;51.540;5.854;2023-04-26T09:44:23;101651.97;;;10.44;54.00
75036;BME280;64247;51.540;5.854;2023-04-26T09:46:24;101653.56;;;10.54;54.10
75036;BME280;64247;51.540;5.854;2023-04-26T09:48:29;101653.25;;;10.64;54.12
75036;BME280;64247;51.540;5.854;2023-04-26T09:50:33;101654.19;;;10.77;53.59
75036;BME280;64247;51.540;5.854;2023-04-26T09:52:42;101647.13;;;10.85;53.01
75036;BME280;64247;51.540;5.854;2023-04-26T09:54:53;101658.13;;;10.88;52.59
75036;BME280;64247;51.540;5.854;2023-04-26T09:56:59;101655.91;;;10.90;54.48
75036;BME280;64247;51.540;5.854;2023-04-26T09:59:01;101647.59;;;10.96;52.64
75036;BME280;64247;51.540;5.854;2023-04-26T10:01:06;101650.47;;;10.99;50.95
75036;BME280;64247;51.540;5.854;2023-04-26T10:03:08;101650.78;;;11.06;52.07
75036;BME280;64247;51.540;5.854;2023-04-26T10:05:09;101645.25;;;11.24;49.70
75036;BME280;64247;51.540;5.854;2023-04-26T10:07:11;101646.59;;;11.48;53.07
75036;BME280;64247;51.540;5.854;2023-04-26T10:09:13;101642.34;;;11.68;51.48
75036;BME280;64247;51.540;5.854;2023-04-26T10:11:15;101639.75;;;11.71;49.84
75036;BME280;64247;51.540;5.854;2023-04-26T10:13:18;101646.19;;;11.97;51.67
75036;BME280;64247;51.540;5.854;2023-04-26T10:15:19;101635.94;;;12.24;49.23
75036;BME280;64247;51.540;5.854;2023-04-26T10:17:20;101637.97;;;12.27;47.98
75036;BME280;64247;51.540;5.854;2023-04-26T10:19:21;101639.19;;;12.17;49.08
75036;BME280;64247;51.540;5.854;2023-04-26T10:21:28;101641.75;;;12.13;48.31
75036;BME280;64247;51.540;5.854;2023-04-26T10:23:35;101648.59;;;11.98;47.78
75036;BME280;64247;51.540;5.854;2023-04-26T10:25:38;101645.16;;;11.80;48.67
75036;BME280;64247;51.540;5.854;2023-04-26T10:28:04;101638.72;;;11.85;50.22
75036;BME280;64247;51.540;5.854;2023-04-26T10:30:07;101644.09;;;12.02;50.83
75036;BME280;64247;51.540;5.854;2023-04-26T10:32:09;101637.31;;;12.09;49.34
75036;BME280;64247;51.540;5.854;2023-04-26T10:34:20;101637.59;;;11.86;47.13
75036;BME280;64247;51.540;5.854;2023-04-26T10:36:21;101642.91;;;11.52;47.36
75036;BME280;64247;51.540;5.854;2023-04-26T10:38:22;101640.31;;;11.26;49.26